Time;durP1;ratioP1;P1;durP2;ratioP2;P2;SDS_P1;SDS_P2;PMS_P1;PMS_P2;Temp;Humidity;BMP_temperature;BMP_pressure;BME280_temperature;BME280_humidity;BME280_pressure;Samples;Min_cycle;Max_cycle;Signal;HPM_P1;HPM_P2
2023/08/23 00:01:49;;;;;;;3.00;2.17;;;;;;;;;;5113115;27;20055;-59
2023/08/23 00:04:16;;;;;;;2.80;1.95;;;;;;;;;;5113244;28;20063;-59
2023/08/23 00:06:43;;;;;;;3.30;2.30;;;;;;;;;;5112974;28;20062;-60
2023/08/23 00:09:10;;;;;;;5.32;2.70;;;;;;;;;;5112509;27;20048;-60
2023/08/23 00:11:37;;;;;;;3.15;2.33;;;;;;;;;;5112577;28;20408;-60
2023/08/23 00:14:03;;;;;;;4.65;2.92;;;;;;;;;;5112709;28;20056;-61
2023/08/23 00:16:31;;;;;;;3.53;2.40;;;;;;;;;;5111058;28;20043;-60
2023/08/23 00:18:58;;;;;;;5.70;2.65;;;;;;;;;;5112741;28;20086;-60
2023/08/23 00:21:27;;;;;;;5.93;2.80;;;;;;;;;;5113078;28;20055;-59
2023/08/23 00:23:54;;;;;;;3.72;2.80;;;;;;;;;;5112526;28;20055;-59
2023/08/23 00:26:21;;;;;;;6.10;2.72;;;;;;;;;;5098196;28;20123;-59
2023/08/23 00:28:47;;;;;;;4.25;2.47;;;;;;;;;;5092294;28;20056;-59
2023/08/23 00:31:14;;;;;;;4.68;2.30;;;;;;;;;;5103593;27;20055;-59
2023/08/23 00:33:42;;;;;;;5.30;2.78;;;;;;;;;;5112789;28;20047;-59
2023/08/23 00:36:09;;;;;;;4.35;3.08;;;;;;;;;;5111471;28;20416;-59
2023/08/23 00:38:36;;;;;;;4.75;3.25;;;;;;;;;;5112221;28;20067;-59
2023/08/23 00:41:03;;;;;;;3.47;2.50;;;;;;;;;;5112664;28;20051;-60
2023/08/23 00:43:29;;;;;;;3.88;3.00;;;;;;;;;;5112333;28;20054;-60
2023/08/23 00:45:56;;;;;;;5.38;2.90;;;;;;;;;;5114009;28;20050;-60
2023/08/23 00:48:23;;;;;;;4.10;3.08;;;;;;;;;;5112753;28;20059;-59
2023/08/23 00:50:51;;;;;;;3.53;2.67;;;;;;;;;;5127666;28;20051;-60
2023/08/23 00:53:18;;;;;;;3.95;2.90;;;;;;;;;;5133159;28;20050;-59
2023/08/23 00:55:45;;;;;;;3.80;2.60;;;;;;;;;;5123754;28;20401;-60
2023/08/23 00:58:12;;;;;;;3.53;2.60;;;;;;;;;;5112542;28;20054;-60
2023/08/23 01:00:41;;;;;;;3.42;2.50;;;;;;;;;;5114085;27;20051;-60
2023/08/23 01:03:08;;;;;;;3.88;2.60;;;;;;;;;;5116527;28;20054;-60
2023/08/23 01:05:41;;;;;;;5.25;2.60;;;;;;;;;;5116039;28;20055;-59
2023/08/23 01:08:14;;;;;;;5.80;2.83;;;;;;;;;;5116590;28;20518;-59
2023/08/23 01:10:45;;;;;;;4.43;2.33;;;;;;;;;;5116567;28;20055;-60
2023/08/23 01:13:17;;;;;;;4.75;2.53;;;;;;;;;;5116172;28;20407;-59
2023/08/23 01:15:45;;;;;;;3.97;3.03;;;;;;;;;;5115557;27;20051;-59
2023/08/23 01:18:13;;;;;;;3.15;2.22;;;;;;;;;;5116064;28;20054;-60
2023/08/23 01:20:40;;;;;;;3.03;2.70;;;;;;;;;;5116416;28;20059;-59
2023/08/23 01:23:11;;;;;;;3.70;2.38;;;;;;;;;;5116354;28;20478;-59
2023/08/23 01:25:42;;;;;;;3.47;2.22;;;;;;;;;;5115633;28;20052;-59
2023/08/23 01:28:09;;;;;;;3.67;2.65;;;;;;;;;;5115960;28;20097;-60
2023/08/23 01:30:37;;;;;;;4.82;2.60;;;;;;;;;;5115115;27;20058;-60
2023/08/23 01:33:07;;;;;;;4.82;2.80;;;;;;;;;;5116219;28;20043;-60
2023/08/23 01:35:35;;;;;;;3.65;2.78;;;;;;;;;;5114601;27;20047;-60
2023/08/23 01:38:02;;;;;;;3.78;2.97;;;;;;;;;;5116164;28;20047;-59
2023/08/23 01:40:31;;;;;;;4.70;2.78;;;;;;;;;;5115968;28;20051;-60
2023/08/23 01:42:58;;;;;;;3.83;2.03;;;;;;;;;;5115888;28;20054;-60
2023/08/23 01:45:25;;;;;;;5.00;2.83;;;;;;;;;;5115321;27;20052;-59
2023/08/23 01:47:51;;;;;;;2.85;2.00;;;;;;;;;;5115923;28;20088;-59
2023/08/23 01:50:18;;;;;;;3.47;2.45;;;;;;;;;;5115731;28;20444;-59
2023/08/23 01:52:45;;;;;;;3.95;2.72;;;;;;;;;;5115823;28;20378;-59
2023/08/23 01:55:12;;;;;;;3.72;2.60;;;;;;;;;;5114691;28;20044;-60
2023/08/23 01:57:41;;;;;;;4.43;2.70;;;;;;;;;;5115232;28;20051;-60
2023/08/23 02:00:08;;;;;;;5.30;2.33;;;;;;;;;;5115059;27;20400;-60
2023/08/23 02:02:35;;;;;;;3.20;2.35;;;;;;;;;;5115450;28;20047;-59
2023/08/23 02:05:02;;;;;;;3.13;2.30;;;;;;;;;;5115005;28;20047;-59
2023/08/23 02:07:29;;;;;;;4.55;2.88;;;;;;;;;;5115484;28;20401;-59
2023/08/23 02:09:56;;;;;;;4.00;2.55;;;;;;;;;;5114485;28;20058;-59
2023/08/23 02:12:22;;;;;;;4.03;3.15;;;;;;;;;;5123298;27;20047;-59
2023/08/23 02:14:51;;;;;;;4.05;2.20;;;;;;;;;;5130248;27;20044;-60
2023/08/23 02:17:17;;;;;;;3.85;2.13;;;;;;;;;;5114380;27;20060;-59
2023/08/23 02:19:44;;;;;;;3.28;2.58;;;;;;;;;;5115405;28;20063;-59
2023/08/23 02:22:11;;;;;;;5.30;3.17;;;;;;;;;;5115203;28;20393;-61
2023/08/23 02:24:38;;;;;;;4.00;2.30;;;;;;;;;;5114030;28;20059;-60
2023/08/23 02:27:04;;;;;;;4.68;2.47;;;;;;;;;;5114840;28;20055;-60
2023/08/23 02:29:31;;;;;;;6.82;2.83;;;;;;;;;;5114482;27;20503;-59
2023/08/23 02:31:59;;;;;;;3.53;2.15;;;;;;;;;;5134618;27;20415;-60
2023/08/23 02:34:26;;;;;;;4.57;2.63;;;;;;;;;;5131987;27;20062;-60
2023/08/23 02:36:53;;;;;;;3.70;2.55;;;;;;;;;;5114356;28;20048;-60
2023/08/23 02:39:20;;;;;;;4.93;2.53;;;;;;;;;;5114612;28;20058;-59
2023/08/23 02:41:46;;;;;;;4.47;2.30;;;;;;;;;;5114846;28;20051;-60
2023/08/23 02:44:13;;;;;;;4.78;2.72;;;;;;;;;;5113931;28;20054;-60
2023/08/23 02:46:40;;;;;;;5.47;2.60;;;;;;;;;;5114559;27;20060;-59
2023/08/23 02:49:08;;;;;;;3.40;2.28;;;;;;;;;;5114907;28;20055;-60
2023/08/23 02:51:35;;;;;;;3.47;1.92;;;;;;;;;;5114145;28;20054;-59
2023/08/23 02:54:02;;;;;;;3.80;2.30;;;;;;;;;;5114689;28;20044;-59
2023/08/23 02:56:29;;;;;;;3.83;2.35;;;;;;;;;;5113883;28;20052;-59
2023/08/23 02:58:55;;;;;;;3.95;2.33;;;;;;;;;;5113999;28;20065;-60
2023/08/23 03:01:22;;;;;;;4.78;2.17;;;;;;;;;;5114221;27;20051;-60
2023/08/23 03:03:49;;;;;;;3.45;2.22;;;;;;;;;;5114469;28;20052;-60
2023/08/23 03:06:17;;;;;;;3.58;2.35;;;;;;;;;;5113589;28;20047;-60
2023/08/23 03:08:44;;;;;;;2.60;2.20;;;;;;;;;;5114336;28;20420;-60
2023/08/23 03:11:11;;;;;;;5.25;2.92;;;;;;;;;;5114139;28;20052;-60
2023/08/23 03:13:37;;;;;;;2.58;2.38;;;;;;;;;;5113757;28;20122;-60
2023/08/23 03:16:04;;;;;;;3.05;2.08;;;;;;;;;;5112912;27;20044;-59
2023/08/23 03:18:31;;;;;;;3.65;2.42;;;;;;;;;;5114223;28;20067;-59
2023/08/23 03:20:58;;;;;;;5.70;2.55;;;;;;;;;;5114322;28;20074;-59
2023/08/23 03:23:26;;;;;;;5.05;2.28;;;;;;;;;;5108790;28;20044;-59
2023/08/23 03:25:53;;;;;;;3.17;2.35;;;;;;;;;;5113157;28;20063;-59
2023/08/23 03:28:19;;;;;;;3.28;2.22;;;;;;;;;;5113916;28;20082;-59
2023/08/23 03:30:46;;;;;;;3.70;2.25;;;;;;;;;;5113374;27;20055;-59
2023/08/23 03:33:13;;;;;;;5.18;2.83;;;;;;;;;;5111927;28;20043;-59
2023/08/23 03:35:40;;;;;;;3.58;2.25;;;;;;;;;;5111682;28;20048;-59
2023/08/23 03:38:07;;;;;;;2.85;2.00;;;;;;;;;;5113591;28;20063;-59
2023/08/23 03:40:38;;;;;;;3.25;2.08;;;;;;;;;;5113642;28;20048;-59
2023/08/23 03:43:05;;;;;;;3.47;2.20;;;;;;;;;;5113802;28;20052;-59
2023/08/23 03:45:32;;;;;;;3.55;2.40;;;;;;;;;;5113365;27;20048;-59
2023/08/23 03:47:59;;;;;;;3.75;2.60;;;;;;;;;;5112928;27;20408;-59
2023/08/23 03:50:25;;;;;;;3.50;2.75;;;;;;;;;;5110677;27;20039;-60
2023/08/23 03:52:52;;;;;;;3.17;2.20;;;;;;;;;;5112316;28;20054;-59
2023/08/23 03:55:19;;;;;;;2.47;2.28;;;;;;;;;;5108553;28;20051;-58
2023/08/23 03:57:47;;;;;;;3.22;2.10;;;;;;;;;;5110038;28;20047;-59
2023/08/23 04:00:14;;;;;;;3.88;2.40;;;;;;;;;;5110181;28;20058;-59
2023/08/23 04:02:43;;;;;;;5.40;2.90;;;;;;;;;;5103464;28;20404;-59
2023/08/23 04:05:11;;;;;;;3.75;2.08;;;;;;;;;;5104591;28;20056;-59
2023/08/23 04:07:38;;;;;;;3.33;2.22;;;;;;;;;;5102059;28;20051;-59
2023/08/23 04:10:05;;;;;;;6.82;4.80;;;;;;;;;;5111728;28;20047;-58
2023/08/23 04:12:32;;;;;;;3.40;2.35;;;;;;;;;;5112811;28;20051;-59
2023/08/23 04:15:00;;;;;;;3.20;2.53;;;;;;;;;;5111864;27;20043;-59
2023/08/23 04:17:27;;;;;;;3.65;2.42;;;;;;;;;;5112075;28;20067;-59
2023/08/23 04:19:54;;;;;;;3.33;2.03;;;;;;;;;;5112932;28;20055;-59
2023/08/23 04:22:21;;;;;;;3.15;2.15;;;;;;;;;;5115818;28;20051;-59
2023/08/23 04:24:49;;;;;;;5.90;2.75;;;;;;;;;;5133543;27;20384;-59
2023/08/23 04:27:16;;;;;;;4.25;2.60;;;;;;;;;;5117188;27;20476;-59
2023/08/23 04:29:42;;;;;;;3.45;2.38;;;;;;;;;;5111984;28;20511;-59
2023/08/23 04:32:12;;;;;;;3.47;2.17;;;;;;;;;;5093936;28;20052;-59
2023/08/23 04:34:39;;;;;;;3.38;2.53;;;;;;;;;;5112265;28;20052;-59
2023/08/23 04:37:07;;;;;;;4.50;3.08;;;;;;;;;;5112319;28;20519;-59
2023/08/23 04:39:34;;;;;;;4.90;2.20;;;;;;;;;;5111857;28;20087;-59
2023/08/23 04:42:00;;;;;;;3.03;2.40;;;;;;;;;;5112615;28;20055;-60
2023/08/23 04:44:29;;;;;;;3.60;2.42;;;;;;;;;;5112219;28;20117;-59
2023/08/23 04:46:56;;;;;;;4.07;2.50;;;;;;;;;;5092381;28;20481;-59
2023/08/23 04:49:24;;;;;;;3.60;2.47;;;;;;;;;;5092233;28;20507;-59
2023/08/23 04:51:50;;;;;;;4.32;2.53;;;;;;;;;;5092142;28;20055;-59
2023/08/23 04:54:17;;;;;;;4.03;2.13;;;;;;;;;;5092504;28;20427;-60
2023/08/23 04:56:44;;;;;;;3.40;2.42;;;;;;;;;;5112002;28;20059;-59
2023/08/23 04:59:11;;;;;;;3.47;2.08;;;;;;;;;;5112580;28;20059;-59
2023/08/23 05:01:38;;;;;;;3.05;1.95;;;;;;;;;;5111889;28;20435;-60
2023/08/23 05:04:04;;;;;;;5.93;2.67;;;;;;;;;;5112180;28;20047;-59
2023/08/23 05:06:33;;;;;;;4.78;2.88;;;;;;;;;;5111639;28;20415;-59
2023/08/23 05:08:59;;;;;;;2.70;1.77;;;;;;;;;;5112590;28;20051;-59
2023/08/23 05:11:26;;;;;;;3.05;2.13;;;;;;;;;;5112607;28;20052;-59
2023/08/23 05:13:53;;;;;;;3.85;2.00;;;;;;;;;;5111968;28;20052;-59
2023/08/23 05:16:20;;;;;;;5.78;2.10;;;;;;;;;;5111324;28;20048;-60
2023/08/23 05:18:47;;;;;;;4.53;2.70;;;;;;;;;;5112229;28;20051;-59
2023/08/23 05:21:14;;;;;;;4.00;2.75;;;;;;;;;;5112439;28;20051;-59
2023/08/23 05:23:42;;;;;;;3.38;2.45;;;;;;;;;;5127045;28;20463;-61
2023/08/23 05:26:09;;;;;;;3.45;2.13;;;;;;;;;;5090578;28;20059;-60
2023/08/23 05:28:36;;;;;;;3.85;2.35;;;;;;;;;;5091943;28;20051;-61
2023/08/23 05:31:03;;;;;;;4.82;2.28;;;;;;;;;;5088761;28;20067;-60
2023/08/23 05:33:30;;;;;;;2.65;2.25;;;;;;;;;;5091536;28;20048;-61
2023/08/23 05:35:57;;;;;;;5.10;2.85;;;;;;;;;;5097339;28;20122;-61
2023/08/23 05:38:24;;;;;;;3.67;2.35;;;;;;;;;;5106935;28;20397;-60
2023/08/23 05:40:53;;;;;;;4.00;2.55;;;;;;;;;;5113402;28;20404;-61
2023/08/23 05:43:20;;;;;;;4.38;2.83;;;;;;;;;;5114700;28;20055;-61
2023/08/23 05:45:46;;;;;;;4.88;2.97;;;;;;;;;;5111812;28;20047;-59
2023/08/23 05:48:14;;;;;;;4.45;3.75;;;;;;;;;;5115388;28;20067;-60
2023/08/23 05:50:40;;;;;;;4.72;3.03;;;;;;;;;;5114251;27;20400;-60
2023/08/23 05:53:11;;;;;;;6.45;3.00;;;;;;;;;;5115427;28;20105;-60
2023/08/23 05:55:38;;;;;;;4.22;2.90;;;;;;;;;;5106912;28;20400;-60
2023/08/23 05:58:06;;;;;;;4.72;2.83;;;;;;;;;;5115588;28;20515;-60
2023/08/23 06:00:33;;;;;;;4.03;2.85;;;;;;;;;;5106625;28;20070;-60
2023/08/23 06:02:59;;;;;;;3.78;2.60;;;;;;;;;;5115146;28;20052;-60
2023/08/23 06:05:26;;;;;;;3.95;2.42;;;;;;;;;;5115351;28;20421;-60
2023/08/23 06:07:53;;;;;;;7.20;3.05;;;;;;;;;;5114415;28;20519;-60
2023/08/23 06:10:20;;;;;;;4.93;2.75;;;;;;;;;;5114184;28;20105;-60
2023/08/23 06:12:47;;;;;;;3.78;2.55;;;;;;;;;;5114706;28;20051;-60
2023/08/23 06:15:15;;;;;;;4.88;2.72;;;;;;;;;;5112003;28;20040;-60
2023/08/23 06:17:42;;;;;;;3.63;2.65;;;;;;;;;;5115312;28;20052;-60
2023/08/23 06:20:09;;;;;;;6.10;3.35;;;;;;;;;;5114809;28;20051;-60
2023/08/23 06:22:37;;;;;;;6.00;3.40;;;;;;;;;;5118693;27;20051;-60
2023/08/23 06:25:05;;;;;;;5.18;3.22;;;;;;;;;;5123030;27;20385;-60
2023/08/23 06:27:31;;;;;;;7.28;3.95;;;;;;;;;;5114322;28;20056;-60
2023/08/23 06:29:58;;;;;;;5.43;3.70;;;;;;;;;;5114460;28;20059;-60
2023/08/23 06:32:26;;;;;;;3.75;2.75;;;;;;;;;;5112853;27;20059;-60
2023/08/23 06:34:54;;;;;;;4.55;2.55;;;;;;;;;;5108529;28;20051;-60
2023/08/23 06:37:21;;;;;;;4.65;2.53;;;;;;;;;;5112147;28;20055;-60
2023/08/23 06:39:48;;;;;;;5.47;3.13;;;;;;;;;;5114769;28;20419;-60
2023/08/23 06:42:15;;;;;;;4.72;2.90;;;;;;;;;;5111042;28;20055;-60
2023/08/23 06:44:41;;;;;;;4.00;2.85;;;;;;;;;;5114592;28;20400;-60
2023/08/23 06:47:09;;;;;;;5.28;2.58;;;;;;;;;;5110620;28;20051;-60
2023/08/23 06:49:37;;;;;;;5.30;2.88;;;;;;;;;;5107206;28;20476;-60
2023/08/23 06:52:04;;;;;;;5.18;3.10;;;;;;;;;;5114060;28;20059;-60
2023/08/23 06:54:31;;;;;;;4.60;2.50;;;;;;;;;;5114375;28;20056;-60
2023/08/23 06:56:57;;;;;;;3.78;2.13;;;;;;;;;;5105494;28;20059;-60
2023/08/23 06:59:24;;;;;;;5.05;2.75;;;;;;;;;;5104977;28;20051;-60
2023/08/23 07:01:50;;;;;;;5.32;3.17;;;;;;;;;;5114612;28;20055;-60
2023/08/23 07:04:17;;;;;;;3.40;2.38;;;;;;;;;;5114433;28;20055;-60
2023/08/23 07:06:45;;;;;;;5.80;3.00;;;;;;;;;;5113628;28;20047;-60
2023/08/23 07:09:12;;;;;;;3.95;2.20;;;;;;;;;;5094076;28;20408;-60
2023/08/23 07:11:39;;;;;;;4.88;2.72;;;;;;;;;;5093444;28;20052;-60
2023/08/23 07:14:06;;;;;;;5.13;2.72;;;;;;;;;;5093700;28;20059;-60
2023/08/23 07:16:33;;;;;;;4.63;3.35;;;;;;;;;;5107790;28;20051;-60
2023/08/23 07:19:01;;;;;;;5.03;3.20;;;;;;;;;;5114013;28;20513;-60
2023/08/23 07:21:28;;;;;;;4.80;2.55;;;;;;;;;;5114252;28;20052;-60
2023/08/23 07:23:57;;;;;;;5.78;3.03;;;;;;;;;;5096862;28;20052;-60
2023/08/23 07:26:24;;;;;;;4.27;2.27;;;;;;;;;;5102440;28;20047;-60
2023/08/23 07:28:51;;;;;;;5.38;3.45;;;;;;;;;;5114367;28;20052;-60
2023/08/23 07:31:17;;;;;;;3.53;2.53;;;;;;;;;;5100836;28;20062;-61
2023/08/23 07:33:44;;;;;;;5.43;2.67;;;;;;;;;;5113746;28;20055;-60
2023/08/23 07:36:11;;;;;;;4.28;2.55;;;;;;;;;;5113333;28;20412;-60
2023/08/23 07:38:39;;;;;;;3.65;2.55;;;;;;;;;;5113095;27;20059;-60
2023/08/23 07:41:07;;;;;;;3.45;2.10;;;;;;;;;;5113842;28;20472;-60
2023/08/23 07:43:34;;;;;;;5.22;2.50;;;;;;;;;;5113560;28;20055;-60
2023/08/23 07:46:02;;;;;;;3.47;2.33;;;;;;;;;;5113433;27;20047;-60
2023/08/23 07:48:29;;;;;;;3.85;2.60;;;;;;;;;;5113701;28;20416;-60
2023/08/23 07:51:00;;;;;;;3.67;2.40;;;;;;;;;;5113716;28;20048;-60
2023/08/23 07:53:27;;;;;;;3.80;2.10;;;;;;;;;;5132766;27;20051;-61
2023/08/23 07:55:53;;;;;;;3.53;2.00;;;;;;;;;;5134072;27;20074;-61
2023/08/23 07:58:22;;;;;;;2.58;2.00;;;;;;;;;;5122924;27;20051;-61
2023/08/23 08:00:50;;;;;;;3.10;1.70;;;;;;;;;;5112742;28;20062;-61
2023/08/23 08:03:17;;;;;;;3.70;2.00;;;;;;;;;;5113485;28;20051;-61
2023/08/23 08:05:43;;;;;;;3.05;1.80;;;;;;;;;;5112051;28;20048;-61
2023/08/23 08:08:10;;;;;;;3.97;2.20;;;;;;;;;;5112813;28;20048;-61
2023/08/23 08:10:37;;;;;;;2.53;1.60;;;;;;;;;;5111902;27;20468;-61
2023/08/23 08:13:04;;;;;;;3.13;2.05;;;;;;;;;;5113242;28;20412;-61
2023/08/23 08:15:32;;;;;;;3.63;1.65;;;;;;;;;;5113304;28;20046;-62
2023/08/23 08:17:59;;;;;;;3.05;1.67;;;;;;;;;;5092865;28;20409;-62
2023/08/23 08:20:26;;;;;;;2.83;1.77;;;;;;;;;;5092742;28;20052;-62
2023/08/23 08:22:53;;;;;;;2.22;1.52;;;;;;;;;;5102161;28;20055;-61
2023/08/23 08:25:20;;;;;;;4.90;1.70;;;;;;;;;;5113322;28;20044;-62
2023/08/23 08:27:46;;;;;;;2.65;1.55;;;;;;;;;;5113083;28;20048;-62
2023/08/23 08:30:13;;;;;;;2.50;1.42;;;;;;;;;;5113086;28;20411;-62
2023/08/23 08:32:41;;;;;;;2.58;1.10;;;;;;;;;;5112618;28;20078;-62
2023/08/23 08:35:08;;;;;;;3.30;1.50;;;;;;;;;;5111563;28;20047;-62
2023/08/23 08:37:35;;;;;;;2.65;1.40;;;;;;;;;;5112865;28;20419;-62
2023/08/23 08:40:02;;;;;;;2.85;1.38;;;;;;;;;;5111504;28;20051;-62
2023/08/23 08:42:29;;;;;;;3.60;1.35;;;;;;;;;;5112738;28;20051;-62
2023/08/23 08:44:57;;;;;;;2.65;1.48;;;;;;;;;;5113102;28;20052;-62
2023/08/23 08:47:24;;;;;;;5.07;1.88;;;;;;;;;;5115394;28;20400;-62
2023/08/23 08:49:52;;;;;;;1.90;1.10;;;;;;;;;;5112709;28;20049;-62
2023/08/23 08:52:19;;;;;;;2.40;1.30;;;;;;;;;;5113062;28;20059;-63
2023/08/23 08:54:47;;;;;;;5.05;1.58;;;;;;;;;;5112929;28;20055;-62
2023/08/23 08:57:15;;;;;;;1.63;0.90;;;;;;;;;;5112623;28;20051;-60
2023/08/23 08:59:42;;;;;;;1.27;0.77;;;;;;;;;;5111631;28;20052;-62
2023/08/23 09:02:11;;;;;;;2.42;1.27;;;;;;;;;;5111354;28;20051;-62
2023/08/23 09:04:39;;;;;;;1.75;1.10;;;;;;;;;;5112644;28;20388;-63
2023/08/23 09:07:07;;;;;;;1.70;0.90;;;;;;;;;;5112663;28;20384;-60
2023/08/23 09:09:34;;;;;;;5.13;1.17;;;;;;;;;;5131026;28;20391;-60
2023/08/23 09:12:00;;;;;;;1.80;1.03;;;;;;;;;;5123351;28;20165;-60
2023/08/23 09:14:29;;;;;;;2.70;1.08;;;;;;;;;;5112360;28;20484;-60
2023/08/23 09:16:56;;;;;;;2.65;1.33;;;;;;;;;;5111674;28;20495;-60
2023/08/23 09:19:22;;;;;;;2.10;1.00;;;;;;;;;;5111512;28;20064;-60
2023/08/23 09:21:50;;;;;;;1.83;0.93;;;;;;;;;;5115264;28;20059;-61
2023/08/23 09:24:18;;;;;;;2.15;1.13;;;;;;;;;;5114831;27;20047;-60
2023/08/23 09:26:45;;;;;;;1.13;0.70;;;;;;;;;;5116224;28;20055;-63
2023/08/23 09:29:12;;;;;;;1.88;0.85;;;;;;;;;;5116223;28;20500;-60
2023/08/23 09:31:40;;;;;;;2.28;1.00;;;;;;;;;;5115208;27;20054;-60
2023/08/23 09:34:11;;;;;;;2.90;1.48;;;;;;;;;;5115519;27;20055;-60
2023/08/23 09:36:40;;;;;;;1.73;0.95;;;;;;;;;;5115603;28;20512;-60
2023/08/23 09:39:09;;;;;;;3.50;1.20;;;;;;;;;;5116074;28;20055;-60
2023/08/23 09:41:38;;;;;;;2.63;1.35;;;;;;;;;;5116012;28;20059;-60
2023/08/23 09:44:05;;;;;;;2.47;1.17;;;;;;;;;;5114830;27;20063;-60
2023/08/23 09:46:34;;;;;;;2.13;1.08;;;;;;;;;;5116368;28;20051;-60
2023/08/23 09:49:03;;;;;;;1.42;0.90;;;;;;;;;;5113767;27;20055;-60
2023/08/23 09:51:30;;;;;;;1.77;0.85;;;;;;;;;;5116151;28;20059;-61
2023/08/23 09:53:59;;;;;;;2.03;1.08;;;;;;;;;;5115651;28;20055;-61
2023/08/23 09:56:26;;;;;;;1.70;1.00;;;;;;;;;;5116000;28;20152;-60
2023/08/23 09:58:59;;;;;;;;;;;;;;;;;;5116624;28;20048;-60
2023/08/23 10:01:27;;;;;;;1.67;1.15;;;;;;;;;;5114149;27;19923;-61
2023/08/23 10:03:54;;;;;;;1.52;1.10;;;;;;;;;;5115041;27;20079;-60
2023/08/23 10:06:21;;;;;;;1.75;1.10;;;;;;;;;;5115835;28;20048;-61
2023/08/23 10:08:48;;;;;;;1.88;0.98;;;;;;;;;;5115738;28;20400;-63
2023/08/23 10:11:17;;;;;;;1.00;0.70;;;;;;;;;;5115897;28;20054;-60
2023/08/23 10:13:44;;;;;;;3.55;1.08;;;;;;;;;;5114906;27;20055;-60
2023/08/23 10:16:12;;;;;;;2.00;1.27;;;;;;;;;;5115498;28;20405;-61
2023/08/23 10:18:41;;;;;;;2.50;0.93;;;;;;;;;;5114460;27;20492;-61
2023/08/23 10:21:08;;;;;;;2.30;1.10;;;;;;;;;;5115346;28;20058;-61
2023/08/23 10:23:36;;;;;;;2.80;1.00;;;;;;;;;;5115588;28;20058;-61
2023/08/23 10:26:03;;;;;;;2.20;1.38;;;;;;;;;;5114463;27;20054;-61
2023/08/23 10:28:30;;;;;;;2.70;1.25;;;;;;;;;;5114879;28;20484;-61
2023/08/23 10:30:59;;;;;;;3.80;1.10;;;;;;;;;;5114844;28;20055;-61
2023/08/23 10:33:26;;;;;;;1.95;0.90;;;;;;;;;;5114150;27;20047;-61
2023/08/23 10:35:54;;;;;;;2.03;1.00;;;;;;;;;;5114812;28;20523;-61
2023/08/23 10:38:22;;;;;;;2.33;1.17;;;;;;;;;;5114043;27;20043;-61
2023/08/23 10:40:48;;;;;;;1.30;0.75;;;;;;;;;;5115006;28;20052;-61
2023/08/23 10:43:16;;;;;;;2.55;0.98;;;;;;;;;;5114808;28;20058;-61
2023/08/23 10:45:50;;;;;;;1.40;0.90;;;;;;;;;;5114720;28;20161;-61
2023/08/23 10:48:19;;;;;;;1.70;1.17;;;;;;;;;;5112962;27;20055;-61
2023/08/23 10:50:46;;;;;;;4.05;1.58;;;;;;;;;;5114938;28;20396;-61
2023/08/23 10:53:15;;;;;;;1.50;0.70;;;;;;;;;;5114602;28;20051;-61
2023/08/23 10:55:42;;;;;;;1.63;0.90;;;;;;;;;;5114647;28;20388;-61
2023/08/23 10:58:09;;;;;;;2.00;0.80;;;;;;;;;;5114586;28;20054;-61
2023/08/23 11:00:36;;;;;;;1.50;1.13;;;;;;;;;;5113457;27;20070;-61
2023/08/23 11:03:05;;;;;;;1.58;0.88;;;;;;;;;;5113697;28;20412;-61
2023/08/23 11:05:32;;;;;;;1.48;0.80;;;;;;;;;;5115143;27;20066;-61
2023/08/23 11:07:59;;;;;;;1.35;0.90;;;;;;;;;;5114220;28;20063;-61
2023/08/23 11:10:28;;;;;;;1.15;0.65;;;;;;;;;;5114046;28;20404;-61
2023/08/23 11:12:54;;;;;;;1.73;0.80;;;;;;;;;;5115062;27;20396;-61
2023/08/23 11:15:21;;;;;;;1.10;0.70;;;;;;;;;;5114348;28;20109;-61
2023/08/23 11:17:48;;;;;;;1.08;0.80;;;;;;;;;;5114114;28;20051;-61
2023/08/23 11:20:16;;;;;;;1.17;0.80;;;;;;;;;;5113351;27;20404;-61
2023/08/23 11:22:43;;;;;;;1.65;1.00;;;;;;;;;;5113631;28;20056;-61
2023/08/23 11:25:10;;;;;;;1.52;0.70;;;;;;;;;;5113408;28;20047;-61
2023/08/23 11:27:38;;;;;;;1.25;0.80;;;;;;;;;;5113788;28;20507;-61
2023/08/23 11:30:06;;;;;;;1.60;0.70;;;;;;;;;;5113570;28;20051;-61
2023/08/23 11:32:32;;;;;;;8.38;1.30;;;;;;;;;;5113412;28;20051;-61
2023/08/23 11:35:00;;;;;;;1.35;0.80;;;;;;;;;;5112483;27;20048;-61
2023/08/23 11:37:29;;;;;;;1.10;0.70;;;;;;;;;;5113354;28;20055;-61
2023/08/23 11:39:56;;;;;;;1.50;0.88;;;;;;;;;;5112940;28;20051;-61
2023/08/23 11:42:23;;;;;;;1.20;0.80;;;;;;;;;;5113585;28;20480;-61
2023/08/23 11:44:53;;;;;;;2.05;1.00;;;;;;;;;;5112512;28;20051;-61
2023/08/23 11:47:20;;;;;;;2.20;0.88;;;;;;;;;;5113427;28;20061;-61
2023/08/23 11:49:47;;;;;;;1.25;0.80;;;;;;;;;;5112366;27;20055;-61
2023/08/23 11:52:17;;;;;;;1.92;1.00;;;;;;;;;;5113271;28;20051;-61
2023/08/23 11:54:44;;;;;;;3.45;0.98;;;;;;;;;;5113253;28;20412;-61
2023/08/23 11:57:14;;;;;;;1.92;1.08;;;;;;;;;;5113022;27;20043;-61
2023/08/23 11:59:41;;;;;;;1.48;0.90;;;;;;;;;;5113331;28;20060;-60
2023/08/23 12:02:10;;;;;;;1.73;0.93;;;;;;;;;;5112658;28;20060;-61
2023/08/23 12:04:40;;;;;;;0.82;0.60;;;;;;;;;;5112096;27;20048;-63
2023/08/23 12:07:07;;;;;;;1.63;0.88;;;;;;;;;;5113239;28;20048;-62
2023/08/23 12:09:34;;;;;;;1.42;0.80;;;;;;;;;;5113060;28;20415;-63
2023/08/23 12:12:02;;;;;;;3.60;1.38;;;;;;;;;;5109283;28;20056;-63
2023/08/23 12:14:29;;;;;;;2.10;0.98;;;;;;;;;;5111062;27;20059;-63
2023/08/23 12:16:55;;;;;;;1.27;0.90;;;;;;;;;;5113154;28;20048;-63
2023/08/23 12:19:24;;;;;;;2.13;0.80;;;;;;;;;;5112433;27;20048;-63
2023/08/23 12:21:51;;;;;;;1.67;0.80;;;;;;;;;;5111521;28;20051;-63
2023/08/23 12:24:19;;;;;;;1.40;0.93;;;;;;;;;;5113040;28;20055;-63
2023/08/23 12:26:46;;;;;;;1.95;0.70;;;;;;;;;;5112836;28;20059;-63
2023/08/23 12:29:12;;;;;;;2.67;0.90;;;;;;;;;;5112759;28;20489;-63
2023/08/23 12:31:39;;;;;;;1.85;0.80;;;;;;;;;;5112105;28;20423;-64
2023/08/23 12:34:06;;;;;;;3.75;1.20;;;;;;;;;;5112709;28;20047;-63
2023/08/23 12:36:34;;;;;;;1.73;1.25;;;;;;;;;;5112784;27;20060;-62
2023/08/23 12:39:01;;;;;;;1.98;1.27;;;;;;;;;;5113110;28;20055;-63
2023/08/23 12:41:28;;;;;;;2.03;0.88;;;;;;;;;;5112114;28;20051;-62
2023/08/23 12:43:55;;;;;;;;;;;;;;;;;;5111907;28;20051;-62
2023/08/23 12:46:21;;;;;;;1.48;0.90;;;;;;;;;;5113024;28;19920;-62
2023/08/23 12:48:48;;;;;;;1.63;0.95;;;;;;;;;;5113136;28;20047;-63
2023/08/23 12:51:15;;;;;;;1.90;1.13;;;;;;;;;;5111977;28;20052;-62
2023/08/23 12:53:43;;;;;;;2.50;1.13;;;;;;;;;;5112875;28;20056;-62
2023/08/23 12:56:10;;;;;;;2.85;1.15;;;;;;;;;;5116118;28;20063;-63
2023/08/23 12:58:37;;;;;;;1.60;1.10;;;;;;;;;;5116623;28;20052;-63
2023/08/23 13:01:03;;;;;;;1.40;0.88;;;;;;;;;;5115480;27;20503;-62
2023/08/23 13:03:30;;;;;;;1.58;0.90;;;;;;;;;;5114834;28;20055;-62
2023/08/23 13:05:57;;;;;;;1.92;1.08;;;;;;;;;;5119683;27;20484;-63
2023/08/23 13:08:24;;;;;;;4.25;1.50;;;;;;;;;;5116563;28;20496;-63
2023/08/23 13:10:52;;;;;;;2.80;1.30;;;;;;;;;;5114063;28;20048;-62
2023/08/23 13:13:19;;;;;;;2.38;1.40;;;;;;;;;;5116307;28;20056;-62
2023/08/23 13:15:45;;;;;;;2.45;1.00;;;;;;;;;;5116442;28;20488;-62
2023/08/23 13:18:12;;;;;;;1.60;0.98;;;;;;;;;;5113703;27;20164;-62
2023/08/23 13:20:39;;;;;;;1.90;0.98;;;;;;;;;;5114871;27;20412;-62
2023/08/23 13:23:07;;;;;;;2.08;1.15;;;;;;;;;;5116286;28;20052;-62
2023/08/23 13:25:34;;;;;;;2.33;1.60;;;;;;;;;;5116594;28;20055;-62
2023/08/23 13:28:03;;;;;;;2.78;1.10;;;;;;;;;;5115700;28;20043;-62
2023/08/23 13:30:30;;;;;;;1.80;1.10;;;;;;;;;;5116401;28;20048;-62
2023/08/23 13:32:57;;;;;;;1.70;1.25;;;;;;;;;;5116148;28;20052;-62
2023/08/23 13:35:24;;;;;;;2.50;1.10;;;;;;;;;;5114952;27;20496;-62
2023/08/23 13:37:51;;;;;;;1.30;0.88;;;;;;;;;;5114122;28;20503;-62
2023/08/23 13:40:18;;;;;;;2.60;1.40;;;;;;;;;;5115632;28;20051;-62
2023/08/23 13:42:44;;;;;;;1.80;1.20;;;;;;;;;;5116133;28;20137;-62
2023/08/23 13:45:13;;;;;;;2.07;0.87;;;;;;;;;;5116208;28;20055;-62
2023/08/23 13:47:39;;;;;;;2.63;1.13;;;;;;;;;;5115513;28;20493;-62
2023/08/23 13:50:09;;;;;;;2.73;1.23;;;;;;;;;;5114392;27;20512;-61
2023/08/23 13:52:35;;;;;;;2.40;1.13;;;;;;;;;;5115540;28;21040;-61
2023/08/23 13:55:04;;;;;;;3.08;1.00;;;;;;;;;;5115533;28;20052;-62
2023/08/23 13:57:31;;;;;;;1.92;1.30;;;;;;;;;;5115240;28;20051;-62
2023/08/23 13:59:57;;;;;;;3.85;1.50;;;;;;;;;;5113164;28;20067;-62
2023/08/23 14:02:25;;;;;;;2.80;1.45;;;;;;;;;;5114804;27;20070;-62
2023/08/23 14:04:52;;;;;;;4.07;1.73;;;;;;;;;;5113872;28;20412;-61
2023/08/23 14:07:19;;;;;;;1.85;1.33;;;;;;;;;;5114834;28;20051;-61
2023/08/23 14:09:48;;;;;;;1.88;1.40;;;;;;;;;;5112990;28;20040;-61
2023/08/23 14:12:15;;;;;;;2.13;1.10;;;;;;;;;;5114949;28;20056;-62
2023/08/23 14:14:42;;;;;;;2.40;1.55;;;;;;;;;;5114701;28;20472;-62
2023/08/23 14:17:09;;;;;;;4.22;1.20;;;;;;;;;;5114591;28;20078;-62
2023/08/23 14:19:45;;;;;;;2.63;1.23;;;;;;;;;;5113919;27;20048;-62
2023/08/23 14:22:12;;;;;;;2.30;1.45;;;;;;;;;;5114913;28;20052;-62
2023/08/23 14:24:39;;;;;;;2.53;1.38;;;;;;;;;;5114244;27;20055;-62
2023/08/23 14:27:06;;;;;;;3.30;1.75;;;;;;;;;;5114784;28;20055;-62
2023/08/23 14:29:33;;;;;;;2.67;1.73;;;;;;;;;;5115080;28;20460;-62
2023/08/23 14:31:59;;;;;;;2.22;1.52;;;;;;;;;;5114884;28;20051;-62
2023/08/23 14:34:26;;;;;;;2.13;1.70;;;;;;;;;;5113611;27;20051;-62
2023/08/23 14:36:58;;;;;;;2.67;1.55;;;;;;;;;;5113405;28;20063;-62
2023/08/23 14:39:24;;;;;;;2.03;1.60;;;;;;;;;;5114466;28;20058;-62
2023/08/23 14:41:51;;;;;;;2.75;1.90;;;;;;;;;;5114041;28;20059;-62
2023/08/23 14:44:21;;;;;;;2.65;1.70;;;;;;;;;;5114134;28;20051;-62